Rew, Pennsylvania
Current Conditions -  °F | °C
As of 3:53 AM on Saturday 25 Oct 2014 (Local Time) from KBFD Reporting Station
Overcast Overcast  
Wind Chill: 47°   Ceiling: 3800
Heat Index: 47°   Visibility: 10mi
Dew Point: 39°   Wind: 3mph
Humidity: 74%   Direction: 230°SW
Pressure: 29.92"   Gusts: NA
Location:  41.9°N, 78.54°W
Report Text: KBFD 250753Z AUTO 23003KT 10SM OVC038 08/04 A2992 RMK AO2 SLP132 T00830039
Loading
Personal Weather Stations






























Interactive Weather Map
Tropical Storm Tracking
New forecast layout! Learn more

10-Day Weather Forecast

Advertisements
Track Severe Weather on mobile